ADDS METAR Data INFO
IDs: Format: Raw Decoded Include TAF

Data at: 2011 UTC 18 Jul 2018

KRXE 181953Z AUTO 20007KT 10SM CLR 30/09 A3017 RMK AO2 SLP168 T03000089
KRXE 181853Z AUTO VRB05KT 10SM CLR 29/11 A3019 RMK AO2 SLP175 T02890106
KRXE 181753Z AUTO 26005KT 10SM CLR 27/09 A3021 RMK AO2 SLP184 T02670094 10272 20111 56009
KRXE 181653Z AUTO 09004KT 10SM CLR 23/12 A3022 RMK AO2 SLP189 T02330117
KRXE 181553Z AUTO 00000KT 10SM CLR 19/11 A3023 RMK AO2 SLP197 T01940111
KRXE 181453Z AUTO 36003KT 10SM CLR 16/10 A3024 RMK AO2 SLP203 T01610100 53008
KRXE 181353Z AUTO 01004KT 10SM CLR 13/09 A3023 RMK AO2 SLP199 T01330094
KRXE 181253Z AUTO 04004KT 10SM CLR 12/08 A3022 RMK AO2 SLP197 T01170083
KRXE 181153Z AUTO 04004KT 10SM CLR 11/08 A3021 RMK AO2 SLP192 70001 T01110083 10167 20111 53005
KRXE 181053Z AUTO 00000KT 10SM CLR 12/09 A3021 RMK AO2 SLP184 T01220094
KRXE 180953Z AUTO 05004KT 10SM CLR 13/11 A3020 RMK AO2 SLP179 T01330106
KRXE 180853Z AUTO 06005KT 10SM FEW120 14/11 A3019 RMK AO2 SLP177 T01390111 51006
KRXE 180753Z AUTO 05004KT 10SM SCT120 14/11 A3019 RMK AO2 SLP177 T01440111
KRXE 180653Z AUTO 00000KT 10SM SCT120 16/12 A3018 RMK AO2 SLP174 T01560117 403110133
KRXE 180553Z AUTO 05005KT 10SM CLR 17/11 A3017 RMK AO2 SLP174 60001 T01670106 10272 20167 51007
KRXE 180453Z AUTO 05005KT 10SM SCT120 18/10 A3017 RMK AO2 SLP171 T01780100
KRXE 180353Z AUTO 07005KT 10SM CLR 21/10 A3016 RMK AO2 SLP170 T02060100
KRXE 180253Z AUTO 07006KT 10SM CLR 22/12 A3015 RMK AO2 SLP167 60001 T02170117 51008
KRXE 180153Z AUTO 07009KT 10SM CLR 24/12 A3014 RMK AO2 SLP164 T02390117
KRXE 180053Z AUTO 07007KT 10SM FEW110 24/12 A3014 RMK AO2 RAB14E46 SLP166 P0001 T02440117
KRXE 172353Z AUTO 15006KT 10SM BKN120 27/11 A3012 RMK AO2 LTG DSNT NE SLP157 T02670106 10311 20250 56008
KRXE 172253Z AUTO 22009KT 10SM SCT120 30/08 A3013 RMK AO2 SLP154 T03000083
KRXE 172153Z AUTO VRB04KT 10SM CLR 30/09 A3014 RMK AO2 SLP157 T03000094
KRXE 172053Z AUTO 21009KT 10SM CLR 30/10 A3015 RMK AO2 LTG DSNT N SLP161 T03000100 58016
KRXE 171953Z AUTO 24009KT 10SM CLR 28/09 A3018 RMK AO2 SLP170 T02830094
KRXE 171853Z AUTO 22009KT 10SM CLR 27/13 A3020 RMK AO2 SLP179 T02720128
KRXE 171753Z AUTO 25007KT 10SM FEW110 26/12 A3021 RMK AO2 SLP185 T02560122 10256 20133 58003
KRXE 171653Z AUTO 24006KT 10SM SCT120 24/13 A3021 RMK AO2 SLP186 T02390133
KRXE 171553Z AUTO 00000KT 10SM FEW120 21/12 A3022 RMK AO2 SLP191 T02060122
KRXE 171453Z AUTO VRB03KT 10SM CLR 19/12 A3022 RMK AO2 SLP191 T01890122 51005
KRXE 171353Z AUTO 01005KT 10SM CLR 17/12 A3021 RMK AO2 SLP190 T01670117
KRXE 171253Z AUTO 02004KT 10SM CLR 14/11 A3021 RMK AO2 SLP193 T01440111
KRXE 171153Z AUTO 05004KT 10SM CLR 14/11 A3020 RMK AO2 SLP189 60000 70005 T01390111 10161 20139 50001
KRXE 171053Z AUTO 08004KT 10SM CLR 15/12 A3021 RMK AO2 LTG DSNT NE AND SE RAB0955E04 SLP187 P0000 T01500117
KRXE 170953Z AUTO 00000KT 10SM SCT100 16/12 A3022 RMK AO2 LTG DSNT N AND NW SLP180 T01560117
KRXE 170853Z AUTO 00000KT 10SM CLR 16/12 A3019 RMK AO2 LTG DSNT NW SLP172 T01560122 53009